sensor_id;sensor_type;location;lat;lon;timestamp;temperature;humidity
45491;DHT22;31237;45.586;13.782;2023-04-24T00:02:15;14.30;86.20
45491;DHT22;31237;45.586;13.782;2023-04-24T00:04:41;14.20;86.20
45491;DHT22;31237;45.586;13.782;2023-04-24T00:07:12;14.20;86.30
45491;DHT22;31237;45.586;13.782;2023-04-24T00:09:38;14.20;86.40
45491;DHT22;31237;45.586;13.782;2023-04-24T00:12:04;14.30;86.40
45491;DHT22;31237;45.586;13.782;2023-04-24T00:14:31;14.20;86.50
45491;DHT22;31237;45.586;13.782;2023-04-24T00:16:57;14.30;86.50
45491;DHT22;31237;45.586;13.782;2023-04-24T00:19:22;14.30;86.60
45491;DHT22;31237;45.586;13.782;2023-04-24T00:21:48;14.30;86.80
45491;DHT22;31237;45.586;13.782;2023-04-24T00:24:17;14.30;87.20
45491;DHT22;31237;45.586;13.782;2023-04-24T00:26:43;14.20;87.50
45491;DHT22;31237;45.586;13.782;2023-04-24T00:29:09;14.20;87.90
45491;DHT22;31237;45.586;13.782;2023-04-24T00:31:35;14.20;88.10
45491;DHT22;31237;45.586;13.782;2023-04-24T00:34:01;14.10;88.50
45491;DHT22;31237;45.586;13.782;2023-04-24T00:36:27;14.10;88.80
45491;DHT22;31237;45.586;13.782;2023-04-24T00:38:54;14.10;89.10
45491;DHT22;31237;45.586;13.782;2023-04-24T00:41:20;14.10;89.40
45491;DHT22;31237;45.586;13.782;2023-04-24T00:43:46;14.00;89.60
45491;DHT22;31237;45.586;13.782;2023-04-24T00:46:12;14.00;89.70
45491;DHT22;31237;45.586;13.782;2023-04-24T00:48:39;14.00;89.80
45491;DHT22;31237;45.586;13.782;2023-04-24T00:51:05;13.90;89.90
45491;DHT22;31237;45.586;13.782;2023-04-24T00:53:31;14.00;90.00
45491;DHT22;31237;45.586;13.782;2023-04-24T00:55:58;13.90;90.00
45491;DHT22;31237;45.586;13.782;2023-04-24T00:58:25;14.00;90.10
45491;DHT22;31237;45.586;13.782;2023-04-24T01:00:53;13.90;90.10
45491;DHT22;31237;45.586;13.782;2023-04-24T01:03:26;14.00;90.20
45491;DHT22;31237;45.586;13.782;2023-04-24T01:05:54;14.00;90.20
45491;DHT22;31237;45.586;13.782;2023-04-24T01:08:25;14.00;90.30
45491;DHT22;31237;45.586;13.782;2023-04-24T01:10:52;14.00;90.30
45491;DHT22;31237;45.586;13.782;2023-04-24T01:13:19;14.00;90.30
45491;DHT22;31237;45.586;13.782;2023-04-24T01:15:45;14.00;90.40
45491;DHT22;31237;45.586;13.782;2023-04-24T01:18:11;14.00;90.40
45491;DHT22;31237;45.586;13.782;2023-04-24T01:20:42;14.00;90.40
45491;DHT22;31237;45.586;13.782;2023-04-24T01:23:12;14.00;90.50
45491;DHT22;31237;45.586;13.782;2023-04-24T01:25:37;14.10;90.60
45491;DHT22;31237;45.586;13.782;2023-04-24T01:28:04;14.10;90.60
45491;DHT22;31237;45.586;13.782;2023-04-24T01:30:30;14.10;90.60
45491;DHT22;31237;45.586;13.782;2023-04-24T01:32:56;14.10;90.60
45491;DHT22;31237;45.586;13.782;2023-04-24T01:35:22;14.10;91.00
45491;DHT22;31237;45.586;13.782;2023-04-24T01:37:48;14.10;90.80
45491;DHT22;31237;45.586;13.782;2023-04-24T01:40:13;14.10;90.80
45491;DHT22;31237;45.586;13.782;2023-04-24T01:42:41;14.10;90.80
45491;DHT22;31237;45.586;13.782;2023-04-24T01:45:09;14.10;90.90
45491;DHT22;31237;45.586;13.782;2023-04-24T01:47:35;14.10;90.90
45491;DHT22;31237;45.586;13.782;2023-04-24T01:50:01;14.10;90.90
45491;DHT22;31237;45.586;13.782;2023-04-24T01:52:27;14.10;90.90
45491;DHT22;31237;45.586;13.782;2023-04-24T01:54:54;14.10;90.90
45491;DHT22;31237;45.586;13.782;2023-04-24T01:57:21;14.10;91.00
45491;DHT22;31237;45.586;13.782;2023-04-24T01:59:47;14.10;90.90
45491;DHT22;31237;45.586;13.782;2023-04-24T02:02:12;14.20;91.00
45491;DHT22;31237;45.586;13.782;2023-04-24T02:04:39;14.20;90.90
45491;DHT22;31237;45.586;13.782;2023-04-24T02:07:05;14.20;90.90
45491;DHT22;31237;45.586;13.782;2023-04-24T02:09:30;14.20;90.90
45491;DHT22;31237;45.586;13.782;2023-04-24T02:11:56;14.20;90.90
45491;DHT22;31237;45.586;13.782;2023-04-24T02:14:22;14.20;90.90
45491;DHT22;31237;45.586;13.782;2023-04-24T02:16:47;14.20;90.90
45491;DHT22;31237;45.586;13.782;2023-04-24T02:19:13;14.20;90.80
45491;DHT22;31237;45.586;13.782;2023-04-24T02:21:39;14.20;90.80
45491;DHT22;31237;45.586;13.782;2023-04-24T02:24:04;14.20;90.70
45491;DHT22;31237;45.586;13.782;2023-04-24T02:26:30;14.20;90.60
45491;DHT22;31237;45.586;13.782;2023-04-24T02:28:57;14.30;90.60
45491;DHT22;31237;45.586;13.782;2023-04-24T02:31:22;14.30;90.50
45491;DHT22;31237;45.586;13.782;2023-04-24T02:33:48;14.20;90.40
45491;DHT22;31237;45.586;13.782;2023-04-24T02:36:14;14.30;90.20
45491;DHT22;31237;45.586;13.782;2023-04-24T02:38:40;14.30;90.10
45491;DHT22;31237;45.586;13.782;2023-04-24T02:41:05;14.30;90.10
45491;DHT22;31237;45.586;13.782;2023-04-24T02:43:32;14.30;90.10
45491;DHT22;31237;45.586;13.782;2023-04-24T02:45:59;14.30;90.10
45491;DHT22;31237;45.586;13.782;2023-04-24T02:48:24;14.20;90.10
45491;DHT22;31237;45.586;13.782;2023-04-24T02:50:50;14.30;90.20
45491;DHT22;31237;45.586;13.782;2023-04-24T02:53:16;14.20;90.20
45491;DHT22;31237;45.586;13.782;2023-04-24T02:55:42;14.20;90.20
45491;DHT22;31237;45.586;13.782;2023-04-24T02:58:08;14.20;90.40
45491;DHT22;31237;45.586;13.782;2023-04-24T03:00:33;14.20;90.50
45491;DHT22;31237;45.586;13.782;2023-04-24T03:02:59;14.20;90.60
45491;DHT22;31237;45.586;13.782;2023-04-24T03:05:25;14.10;90.70
45491;DHT22;31237;45.586;13.782;2023-04-24T03:07:52;14.10;91.00
45491;DHT22;31237;45.586;13.782;2023-04-24T03:10:18;14.00;91.10
45491;DHT22;31237;45.586;13.782;2023-04-24T03:12:44;14.00;91.20
45491;DHT22;31237;45.586;13.782;2023-04-24T03:15:10;14.00;91.40
45491;DHT22;31237;45.586;13.782;2023-04-24T03:17:35;13.90;91.60
45491;DHT22;31237;45.586;13.782;2023-04-24T03:20:02;13.90;91.80
45491;DHT22;31237;45.586;13.782;2023-04-24T03:22:30;13.80;92.00
45491;DHT22;31237;45.586;13.782;2023-04-24T03:24:58;13.80;92.10
45491;DHT22;31237;45.586;13.782;2023-04-24T03:27:23;13.80;92.30
45491;DHT22;31237;45.586;13.782;2023-04-24T03:29:49;13.70;92.30
45491;DHT22;31237;45.586;13.782;2023-04-24T03:32:19;13.70;92.30
45491;DHT22;31237;45.586;13.782;2023-04-24T03:34:44;13.70;92.40
45491;DHT22;31237;45.586;13.782;2023-04-24T03:37:10;13.70;92.50
45491;DHT22;31237;45.586;13.782;2023-04-24T03:39:36;13.70;92.50
45491;DHT22;31237;45.586;13.782;2023-04-24T03:42:01;13.60;92.50
45491;DHT22;31237;45.586;13.782;2023-04-24T03:44:27;13.70;92.60
45491;DHT22;31237;45.586;13.782;2023-04-24T03:46:53;13.60;92.60
45491;DHT22;31237;45.586;13.782;2023-04-24T03:49:19;13.60;92.70
45491;DHT22;31237;45.586;13.782;2023-04-24T03:51:44;13.70;92.70
45491;DHT22;31237;45.586;13.782;2023-04-24T03:54:10;13.70;92.60
45491;DHT22;31237;45.586;13.782;2023-04-24T03:56:36;13.60;92.60
45491;DHT22;31237;45.586;13.782;2023-04-24T03:59:02;13.60;92.60
45491;DHT22;31237;45.586;13.782;2023-04-24T04:01:27;13.70;92.70
45491;DHT22;31237;45.586;13.782;2023-04-24T04:03:53;13.70;92.70
45491;DHT22;31237;45.586;13.782;2023-04-24T04:06:19;13.60;92.70
45491;DHT22;31237;45.586;13.782;2023-04-24T04:08:46;13.70;92.70
45491;DHT22;31237;45.586;13.782;2023-04-24T04:11:12;13.70;92.80
45491;DHT22;31237;45.586;13.782;2023-04-24T04:13:38;13.70;92.70
45491;DHT22;31237;45.586;13.782;2023-04-24T04:16:03;13.70;92.70
45491;DHT22;31237;45.586;13.782;2023-04-24T04:18:29;13.70;92.70
45491;DHT22;31237;45.586;13.782;2023-04-24T04:20:55;13.70;92.70
45491;DHT22;31237;45.586;13.782;2023-04-24T04:23:22;13.70;92.70
45491;DHT22;31237;45.586;13.782;2023-04-24T04:25:48;13.70;92.70
45491;DHT22;31237;45.586;13.782;2023-04-24T04:28:15;13.70;92.70
45491;DHT22;31237;45.586;13.782;2023-04-24T04:30:40;13.70;92.70
45491;DHT22;31237;45.586;13.782;2023-04-24T04:33:06;13.70;92.70
45491;DHT22;31237;45.586;13.782;2023-04-24T04:35:33;13.70;92.70
45491;DHT22;31237;45.586;13.782;2023-04-24T04:37:59;13.70;92.80
45491;DHT22;31237;45.586;13.782;2023-04-24T04:40:26;13.70;92.80
45491;DHT22;31237;45.586;13.782;2023-04-24T04:42:52;13.60;92.80
45491;DHT22;31237;45.586;13.782;2023-04-24T04:45:19;13.60;92.80
45491;DHT22;31237;45.586;13.782;2023-04-24T04:47:46;13.60;92.80
45491;DHT22;31237;45.586;13.782;2023-04-24T04:50:11;13.70;92.90
45491;DHT22;31237;45.586;13.782;2023-04-24T04:52:37;13.70;92.90
45491;DHT22;31237;45.586;13.782;2023-04-24T04:55:03;13.70;92.90
45491;DHT22;31237;45.586;13.782;2023-04-24T04:57:29;13.70;93.00
45491;DHT22;31237;45.586;13.782;2023-04-24T04:59:55;13.70;93.00
45491;DHT22;31237;45.586;13.782;2023-04-24T05:02:21;13.60;92.90
45491;DHT22;31237;45.586;13.782;2023-04-24T05:04:46;13.60;92.90
45491;DHT22;31237;45.586;13.782;2023-04-24T05:07:12;13.60;93.00
45491;DHT22;31237;45.586;13.782;2023-04-24T05:09:38;13.70;93.10
45491;DHT22;31237;45.586;13.782;2023-04-24T05:12:04;13.60;93.00
45491;DHT22;31237;45.586;13.782;2023-04-24T05:14:29;13.60;93.10
45491;DHT22;31237;45.586;13.782;2023-04-24T05:16:56;13.60;93.00
45491;DHT22;31237;45.586;13.782;2023-04-24T05:19:21;13.60;93.10
45491;DHT22;31237;45.586;13.782;2023-04-24T05:21:47;13.70;93.10
45491;DHT22;31237;45.586;13.782;2023-04-24T05:24:13;13.70;93.20
45491;DHT22;31237;45.586;13.782;2023-04-24T05:26:38;13.70;93.20
45491;DHT22;31237;45.586;13.782;2023-04-24T05:29:04;13.70;93.20
45491;DHT22;31237;45.586;13.782;2023-04-24T05:31:30;13.70;93.20
45491;DHT22;31237;45.586;13.782;2023-04-24T05:33:56;13.70;93.30
45491;DHT22;31237;45.586;13.782;2023-04-24T05:36:22;13.70;93.30
45491;DHT22;31237;45.586;13.782;2023-04-24T05:38:47;13.70;93.30
45491;DHT22;31237;45.586;13.782;2023-04-24T05:41:13;13.70;93.30
45491;DHT22;31237;45.586;13.782;2023-04-24T05:43:38;13.70;93.30
45491;DHT22;31237;45.586;13.782;2023-04-24T05:46:04;13.70;93.30
45491;DHT22;31237;45.586;13.782;2023-04-24T05:48:30;13.70;93.40
45491;DHT22;31237;45.586;13.782;2023-04-24T05:50:56;13.70;93.30
45491;DHT22;31237;45.586;13.782;2023-04-24T05:53:21;13.70;93.30
45491;DHT22;31237;45.586;13.782;2023-04-24T05:55:47;13.70;93.30
45491;DHT22;31237;45.586;13.782;2023-04-24T05:58:13;13.70;93.30
45491;DHT22;31237;45.586;13.782;2023-04-24T06:00:40;13.70;93.40
45491;DHT22;31237;45.586;13.782;2023-04-24T06:03:08;13.70;93.40
45491;DHT22;31237;45.586;13.782;2023-04-24T06:05:34;13.70;93.40
45491;DHT22;31237;45.586;13.782;2023-04-24T06:08:00;13.70;93.40
45491;DHT22;31237;45.586;13.782;2023-04-24T06:10:26;13.70;93.40
45491;DHT22;31237;45.586;13.782;2023-04-24T06:12:51;13.70;93.40
45491;DHT22;31237;45.586;13.782;2023-04-24T06:15:17;13.70;93.40
45491;DHT22;31237;45.586;13.782;2023-04-24T06:17:43;13.70;93.40
45491;DHT22;31237;45.586;13.782;2023-04-24T06:20:08;13.70;93.50
45491;DHT22;31237;45.586;13.782;2023-04-24T06:22:36;13.70;93.50
45491;DHT22;31237;45.586;13.782;2023-04-24T06:25:02;13.70;93.50
45491;DHT22;31237;45.586;13.782;2023-04-24T06:27:28;13.70;93.50
45491;DHT22;31237;45.586;13.782;2023-04-24T06:29:53;13.70;93.50
45491;DHT22;31237;45.586;13.782;2023-04-24T06:32:24;13.70;93.50
45491;DHT22;31237;45.586;13.782;2023-04-24T06:34:53;13.60;93.50
45491;DHT22;31237;45.586;13.782;2023-04-24T06:37:20;13.60;93.50
45491;DHT22;31237;45.586;13.782;2023-04-24T06:39:46;13.60;93.70
45491;DHT22;31237;45.586;13.782;2023-04-24T06:42:11;13.60;93.70
45491;DHT22;31237;45.586;13.782;2023-04-24T06:44:37;13.50;93.70
45491;DHT22;31237;45.586;13.782;2023-04-24T06:47:09;13.60;93.80
45491;DHT22;31237;45.586;13.782;2023-04-24T06:49:36;13.60;93.90
45491;DHT22;31237;45.586;13.782;2023-04-24T06:52:02;13.50;94.00
45491;DHT22;31237;45.586;13.782;2023-04-24T06:54:29;13.50;94.20
45491;DHT22;31237;45.586;13.782;2023-04-24T06:56:55;13.50;94.20
45491;DHT22;31237;45.586;13.782;2023-04-24T06:59:25;13.50;94.30
45491;DHT22;31237;45.586;13.782;2023-04-24T07:01:51;13.50;94.50
45491;DHT22;31237;45.586;13.782;2023-04-24T07:04:17;13.50;94.60
45491;DHT22;31237;45.586;13.782;2023-04-24T07:06:45;13.50;94.70
45491;DHT22;31237;45.586;13.782;2023-04-24T07:09:11;13.50;94.80
45491;DHT22;31237;45.586;13.782;2023-04-24T07:11:38;13.60;94.90
45491;DHT22;31237;45.586;13.782;2023-04-24T07:14:06;13.60;94.90
45491;DHT22;31237;45.586;13.782;2023-04-24T07:16:32;13.70;95.10
45491;DHT22;31237;45.586;13.782;2023-04-24T07:18:57;13.70;95.10
45491;DHT22;31237;45.586;13.782;2023-04-24T07:21:23;13.80;95.10
45491;DHT22;31237;45.586;13.782;2023-04-24T07:23:49;13.80;95.00
45491;DHT22;31237;45.586;13.782;2023-04-24T07:26:15;13.80;94.90
45491;DHT22;31237;45.586;13.782;2023-04-24T07:28:41;13.80;94.90
45491;DHT22;31237;45.586;13.782;2023-04-24T07:31:07;13.80;94.80
45491;DHT22;31237;45.586;13.782;2023-04-24T07:33:33;13.80;94.90
45491;DHT22;31237;45.586;13.782;2023-04-24T07:35:59;13.80;95.00
45491;DHT22;31237;45.586;13.782;2023-04-24T07:38:25;13.70;95.00
45491;DHT22;31237;45.586;13.782;2023-04-24T07:40:51;13.70;95.00
45491;DHT22;31237;45.586;13.782;2023-04-24T07:43:19;13.70;95.10
45491;DHT22;31237;45.586;13.782;2023-04-24T07:45:45;13.70;95.20
45491;DHT22;31237;45.586;13.782;2023-04-24T07:48:11;13.60;95.20
45491;DHT22;31237;45.586;13.782;2023-04-24T07:50:39;13.60;95.40
45491;DHT22;31237;45.586;13.782;2023-04-24T07:53:04;13.60;95.40
45491;DHT22;31237;45.586;13.782;2023-04-24T07:55:30;13.60;95.50
45491;DHT22;31237;45.586;13.782;2023-04-24T07:57:56;13.50;95.50
45491;DHT22;31237;45.586;13.782;2023-04-24T08:00:21;13.50;95.70
45491;DHT22;31237;45.586;13.782;2023-04-24T08:02:47;13.50;95.80
45491;DHT22;31237;45.586;13.782;2023-04-24T08:05:13;13.50;95.90
45491;DHT22;31237;45.586;13.782;2023-04-24T08:07:38;13.50;96.00
45491;DHT22;31237;45.586;13.782;2023-04-24T08:10:04;13.50;96.00
45491;DHT22;31237;45.586;13.782;2023-04-24T08:12:30;13.40;96.20
45491;DHT22;31237;45.586;13.782;2023-04-24T08:14:56;13.50;96.30
45491;DHT22;31237;45.586;13.782;2023-04-24T08:17:23;13.50;96.30
45491;DHT22;31237;45.586;13.782;2023-04-24T08:19:49;13.50;96.30
45491;DHT22;31237;45.586;13.782;2023-04-24T08:22:17;13.60;96.40
45491;DHT22;31237;45.586;13.782;2023-04-24T08:24:42;13.60;96.40
45491;DHT22;31237;45.586;13.782;2023-04-24T08:27:09;13.60;96.40
45491;DHT22;31237;45.586;13.782;2023-04-24T08:29:36;13.70;96.40
45491;DHT22;31237;45.586;13.782;2023-04-24T08:32:01;13.70;96.50
45491;DHT22;31237;45.586;13.782;2023-04-24T08:34:27;13.70;96.50
45491;DHT22;31237;45.586;13.782;2023-04-24T08:36:53;13.70;96.60
45491;DHT22;31237;45.586;13.782;2023-04-24T08:39:19;13.70;96.70
45491;DHT22;31237;45.586;13.782;2023-04-24T08:41:45;13.70;96.80
45491;DHT22;31237;45.586;13.782;2023-04-24T08:44:11;13.70;96.70
45491;DHT22;31237;45.586;13.782;2023-04-24T08:46:38;13.70;96.80
45491;DHT22;31237;45.586;13.782;2023-04-24T08:49:05;13.70;96.90
45491;DHT22;31237;45.586;13.782;2023-04-24T08:51:31;13.70;96.80
45491;DHT22;31237;45.586;13.782;2023-04-24T08:53:57;13.60;96.90
45491;DHT22;31237;45.586;13.782;2023-04-24T08:56:23;13.60;96.90
45491;DHT22;31237;45.586;13.782;2023-04-24T08:58:53;13.60;97.00
45491;DHT22;31237;45.586;13.782;2023-04-24T09:01:20;13.50;97.10
45491;DHT22;31237;45.586;13.782;2023-04-24T09:03:49;13.50;97.30
45491;DHT22;31237;45.586;13.782;2023-04-24T09:06:16;13.40;97.30
45491;DHT22;31237;45.586;13.782;2023-04-24T09:08:43;13.40;97.70
45491;DHT22;31237;45.586;13.782;2023-04-24T09:11:11;13.30;97.70
45491;DHT22;31237;45.586;13.782;2023-04-24T09:13:38;13.30;97.70
45491;DHT22;31237;45.586;13.782;2023-04-24T09:16:13;13.30;97.80
45491;DHT22;31237;45.586;13.782;2023-04-24T09:18:40;13.30;97.80
45491;DHT22;31237;45.586;13.782;2023-04-24T09:21:09;13.30;97.80
45491;DHT22;31237;45.586;13.782;2023-04-24T09:23:35;13.30;97.90
45491;DHT22;31237;45.586;13.782;2023-04-24T09:26:02;13.40;97.90
45491;DHT22;31237;45.586;13.782;2023-04-24T09:28:36;13.30;97.90
45491;DHT22;31237;45.586;13.782;2023-04-24T09:31:13;13.40;98.00
45491;DHT22;31237;45.586;13.782;2023-04-24T09:33:40;13.40;98.20
45491;DHT22;31237;45.586;13.782;2023-04-24T09:36:06;13.40;98.30
45491;DHT22;31237;45.586;13.782;2023-04-24T09:38:32;13.50;98.30
45491;DHT22;31237;45.586;13.782;2023-04-24T09:41:03;13.50;98.30
45491;DHT22;31237;45.586;13.782;2023-04-24T09:43:30;13.60;98.40
45491;DHT22;31237;45.586;13.782;2023-04-24T09:45:57;13.60;98.50
45491;DHT22;31237;45.586;13.782;2023-04-24T09:48:34;13.70;98.40
45491;DHT22;31237;45.586;13.782;2023-04-24T09:51:05;13.70;98.50
45491;DHT22;31237;45.586;13.782;2023-04-24T09:53:36;13.80;98.50
45491;DHT22;31237;45.586;13.782;2023-04-24T09:56:08;13.80;98.50
45491;DHT22;31237;45.586;13.782;2023-04-24T09:58:36;13.90;98.50
45491;DHT22;31237;45.586;13.782;2023-04-24T10:01:02;13.90;98.40
45491;DHT22;31237;45.586;13.782;2023-04-24T10:03:32;14.00;98.50
45491;DHT22;31237;45.586;13.782;2023-04-24T10:06:02;14.00;98.30
45491;DHT22;31237;45.586;13.782;2023-04-24T10:08:34;14.00;98.30
45491;DHT22;31237;45.586;13.782;2023-04-24T10:11:01;14.10;98.30
45491;DHT22;31237;45.586;13.782;2023-04-24T10:13:27;14.10;98.30
45491;DHT22;31237;45.586;13.782;2023-04-24T10:15:53;14.20;98.40
45491;DHT22;31237;45.586;13.782;2023-04-24T10:18:20;14.20;98.40
45491;DHT22;31237;45.586;13.782;2023-04-24T10:20:47;14.30;98.50
45491;DHT22;31237;45.586;13.782;2023-04-24T10:23:12;14.40;98.40
45491;DHT22;31237;45.586;13.782;2023-04-24T10:25:38;14.50;98.50
45491;DHT22;31237;45.586;13.782;2023-04-24T10:28:04;14.50;98.40
45491;DHT22;31237;45.586;13.782;2023-04-24T10:30:33;14.60;98.40
45491;DHT22;31237;45.586;13.782;2023-04-24T10:33:03;14.70;98.30
45491;DHT22;31237;45.586;13.782;2023-04-24T10:35:37;14.70;98.30
45491;DHT22;31237;45.586;13.782;2023-04-24T10:38:11;14.80;98.30
45491;DHT22;31237;45.586;13.782;2023-04-24T10:40:37;14.90;98.20
45491;DHT22;31237;45.586;13.782;2023-04-24T10:43:05;14.90;98.20
45491;DHT22;31237;45.586;13.782;2023-04-24T10:45:33;14.90;98.00
45491;DHT22;31237;45.586;13.782;2023-04-24T10:48:02;15.00;98.00
45491;DHT22;31237;45.586;13.782;2023-04-24T10:50:29;15.00;98.00
45491;DHT22;31237;45.586;13.782;2023-04-24T10:53:06;15.00;97.90
45491;DHT22;31237;45.586;13.782;2023-04-24T10:55:51;14.90;97.80
45491;DHT22;31237;45.586;13.782;2023-04-24T10:58:21;14.90;97.90
45491;DHT22;31237;45.586;13.782;2023-04-24T11:00:59;14.90;97.80
45491;DHT22;31237;45.586;13.782;2023-04-24T11:03:29;14.80;97.80
45491;DHT22;31237;45.586;13.782;2023-04-24T11:06:13;14.80;97.90
45491;DHT22;31237;45.586;13.782;2023-04-24T11:08:43;14.80;97.90
45491;DHT22;31237;45.586;13.782;2023-04-24T11:11:16;14.80;97.90
45491;DHT22;31237;45.586;13.782;2023-04-24T11:16:54;14.80;98.10
45491;DHT22;31237;45.586;13.782;2023-04-24T11:19:23;14.80;98.10
45491;DHT22;31237;45.586;13.782;2023-04-24T11:21:59;14.90;98.20
45491;DHT22;31237;45.586;13.782;2023-04-24T11:27:13;15.00;98.20
45491;DHT22;31237;45.586;13.782;2023-04-24T11:29:47;15.00;98.10
45491;DHT22;31237;45.586;13.782;2023-04-24T11:37:39;15.00;98.00
45491;DHT22;31237;45.586;13.782;2023-04-24T11:40:07;14.90;98.00
45491;DHT22;31237;45.586;13.782;2023-04-24T11:42:44;14.80;98.00
45491;DHT22;31237;45.586;13.782;2023-04-24T11:47:42;14.70;98.10
45491;DHT22;31237;45.586;13.782;2023-04-24T11:50:11;14.50;98.30
45491;DHT22;31237;45.586;13.782;2023-04-24T11:52:39;14.40;98.60
45491;DHT22;31237;45.586;13.782;2023-04-24T11:57:50;14.20;99.10
45491;DHT22;31237;45.586;13.782;2023-04-24T12:00:21;14.10;99.20
45491;DHT22;31237;45.586;13.782;2023-04-24T12:02:47;14.00;99.30
45491;DHT22;31237;45.586;13.782;2023-04-24T12:05:20;14.00;99.50
45491;DHT22;31237;45.586;13.782;2023-04-24T12:07:46;13.90;99.70
45491;DHT22;31237;45.586;13.782;2023-04-24T12:10:12;13.90;99.90
45491;DHT22;31237;45.586;13.782;2023-04-24T12:12:38;13.80;99.80
45491;DHT22;31237;45.586;13.782;2023-04-24T12:15:08;13.80;99.90
45491;DHT22;31237;45.586;13.782;2023-04-24T12:17:35;13.70;99.90
45491;DHT22;31237;45.586;13.782;2023-04-24T12:20:06;13.60;99.90
45491;DHT22;31237;45.586;13.782;2023-04-24T12:22:53;13.60;99.90
45491;DHT22;31237;45.586;13.782;2023-04-24T12:25:24;13.50;99.90
45491;DHT22;31237;45.586;13.782;2023-04-24T12:28:08;13.50;99.90
45491;DHT22;31237;45.586;13.782;2023-04-24T12:30:44;13.40;99.90
45491;DHT22;31237;45.586;13.782;2023-04-24T12:33:17;13.40;99.90
45491;DHT22;31237;45.586;13.782;2023-04-24T12:35:45;13.40;99.90
45491;DHT22;31237;45.586;13.782;2023-04-24T12:38:15;13.30;99.90
45491;DHT22;31237;45.586;13.782;2023-04-24T12:40:41;13.20;99.90
45491;DHT22;31237;45.586;13.782;2023-04-24T12:43:18;13.10;99.90
45491;DHT22;31237;45.586;13.782;2023-04-24T12:45:45;13.00;99.30
45491;DHT22;31237;45.586;13.782;2023-04-24T12:48:11;12.90;99.20
45491;DHT22;31237;45.586;13.782;2023-04-24T12:50:38;12.90;99.20
45491;DHT22;31237;45.586;13.782;2023-04-24T12:53:04;12.80;99.20
45491;DHT22;31237;45.586;13.782;2023-04-24T12:55:29;12.80;99.40
45491;DHT22;31237;45.586;13.782;2023-04-24T12:57:55;12.70;99.60
45491;DHT22;31237;45.586;13.782;2023-04-24T13:00:21;12.80;99.80
45491;DHT22;31237;45.586;13.782;2023-04-24T13:02:47;12.80;99.90
45491;DHT22;31237;45.586;13.782;2023-04-24T13:05:13;12.80;99.90
45491;DHT22;31237;45.586;13.782;2023-04-24T13:07:39;12.90;99.90
45491;DHT22;31237;45.586;13.782;2023-04-24T13:10:05;12.90;99.90
45491;DHT22;31237;45.586;13.782;2023-04-24T13:12:32;12.90;99.90
45491;DHT22;31237;45.586;13.782;2023-04-24T13:14:58;13.00;99.90
45491;DHT22;31237;45.586;13.782;2023-04-24T13:17:24;13.00;99.80
45491;DHT22;31237;45.586;13.782;2023-04-24T13:19:51;13.00;99.70
45491;DHT22;31237;45.586;13.782;2023-04-24T13:22:17;13.00;99.80
45491;DHT22;31237;45.586;13.782;2023-04-24T13:24:46;12.90;99.90
45491;DHT22;31237;45.586;13.782;2023-04-24T13:27:15;13.00;99.90
45491;DHT22;31237;45.586;13.782;2023-04-24T13:29:41;13.10;99.90
45491;DHT22;31237;45.586;13.782;2023-04-24T13:32:08;13.10;99.90
45491;DHT22;31237;45.586;13.782;2023-04-24T13:34:34;13.10;99.90
45491;DHT22;31237;45.586;13.782;2023-04-24T13:37:03;13.20;99.90
45491;DHT22;31237;45.586;13.782;2023-04-24T13:39:29;13.30;99.90
45491;DHT22;31237;45.586;13.782;2023-04-24T13:41:55;13.40;99.90
45491;DHT22;31237;45.586;13.782;2023-04-24T13:44:21;13.50;99.90
45491;DHT22;31237;45.586;13.782;2023-04-24T13:46:50;13.60;99.90
45491;DHT22;31237;45.586;13.782;2023-04-24T13:49:17;13.80;99.90
45491;DHT22;31237;45.586;13.782;2023-04-24T13:51:43;13.90;99.90
45491;DHT22;31237;45.586;13.782;2023-04-24T13:54:09;14.00;99.90
45491;DHT22;31237;45.586;13.782;2023-04-24T13:56:35;14.10;99.90
45491;DHT22;31237;45.586;13.782;2023-04-24T13:59:01;14.20;99.90
45491;DHT22;31237;45.586;13.782;2023-04-24T14:01:27;14.20;99.90
45491;DHT22;31237;45.586;13.782;2023-04-24T14:03:55;14.30;99.90
45491;DHT22;31237;45.586;13.782;2023-04-24T14:06:21;14.40;99.90
45491;DHT22;31237;45.586;13.782;2023-04-24T14:08:49;14.40;99.90
45491;DHT22;31237;45.586;13.782;2023-04-24T14:11:15;14.50;99.90
45491;DHT22;31237;45.586;13.782;2023-04-24T14:13:42;14.50;99.90
45491;DHT22;31237;45.586;13.782;2023-04-24T14:16:09;14.60;99.90
45491;DHT22;31237;45.586;13.782;2023-04-24T14:18:35;14.60;99.90
45491;DHT22;31237;45.586;13.782;2023-04-24T14:21:04;14.60;99.90
45491;DHT22;31237;45.586;13.782;2023-04-24T14:23:30;14.60;99.90
45491;DHT22;31237;45.586;13.782;2023-04-24T14:25:57;14.60;99.90
45491;DHT22;31237;45.586;13.782;2023-04-24T14:28:24;14.50;99.90
45491;DHT22;31237;45.586;13.782;2023-04-24T14:30:49;14.50;99.90
45491;DHT22;31237;45.586;13.782;2023-04-24T14:33:15;14.50;99.90
45491;DHT22;31237;45.586;13.782;2023-04-24T14:35:42;14.50;99.90
45491;DHT22;31237;45.586;13.782;2023-04-24T14:38:08;14.40;99.90
45491;DHT22;31237;45.586;13.782;2023-04-24T14:40:34;14.40;99.90
45491;DHT22;31237;45.586;13.782;2023-04-24T14:43:00;14.30;99.90
45491;DHT22;31237;45.586;13.782;2023-04-24T14:45:26;14.30;99.90
45491;DHT22;31237;45.586;13.782;2023-04-24T14:47:53;14.30;99.90
45491;DHT22;31237;45.586;13.782;2023-04-24T14:50:19;14.30;99.90
45491;DHT22;31237;45.586;13.782;2023-04-24T14:52:45;14.20;99.90
45491;DHT22;31237;45.586;13.782;2023-04-24T14:55:12;14.20;99.90
45491;DHT22;31237;45.586;13.782;2023-04-24T14:57:38;14.10;99.90
45491;DHT22;31237;45.586;13.782;2023-04-24T15:00:08;14.10;99.90
45491;DHT22;31237;45.586;13.782;2023-04-24T15:02:35;14.00;99.90
45491;DHT22;31237;45.586;13.782;2023-04-24T15:05:05;14.00;99.90
45491;DHT22;31237;45.586;13.782;2023-04-24T15:07:31;13.90;99.80
45491;DHT22;31237;45.586;13.782;2023-04-24T15:09:58;13.80;99.70
45491;DHT22;31237;45.586;13.782;2023-04-24T15:12:24;13.80;99.80
45491;DHT22;31237;45.586;13.782;2023-04-24T15:14:50;13.70;99.80
45491;DHT22;31237;45.586;13.782;2023-04-24T15:17:16;13.70;99.70
45491;DHT22;31237;45.586;13.782;2023-04-24T15:19:41;13.60;99.70
45491;DHT22;31237;45.586;13.782;2023-04-24T15:22:07;13.50;99.60
45491;DHT22;31237;45.586;13.782;2023-04-24T15:24:33;13.50;99.60
45491;DHT22;31237;45.586;13.782;2023-04-24T15:26:59;13.40;99.60
45491;DHT22;31237;45.586;13.782;2023-04-24T15:29:27;13.30;99.60
45491;DHT22;31237;45.586;13.782;2023-04-24T15:31:53;13.30;99.50